createdAt,value
2019-02-05T00:00:52.583Z,68.23
2019-02-05T00:01:52.527Z,67.92
2019-02-05T00:02:52.547Z,68.65
2019-02-05T00:03:52.509Z,68.05
2019-02-05T00:04:52.494Z,68.13
2019-02-05T00:05:52.486Z,67.81
2019-02-05T00:06:52.474Z,67.71
2019-02-05T00:07:52.510Z,68.13
2019-02-05T00:08:52.447Z,67.50
2019-02-05T00:09:52.442Z,67.81
2019-02-05T00:10:52.428Z,67.60
2019-02-05T00:11:52.420Z,67.60
2019-02-05T00:12:52.415Z,67.71
2019-02-05T00:13:52.436Z,67.92
2019-02-05T00:14:52.387Z,67.92
2019-02-05T00:15:52.374Z,66.98
2019-02-05T00:16:52.374Z,66.98
2019-02-05T00:17:52.353Z,67.29
2019-02-05T00:18:52.372Z,67.40
2019-02-05T00:19:52.328Z,66.98
2019-02-05T00:20:52.327Z,66.88
2019-02-05T00:21:52.310Z,67.08
2019-02-05T00:22:52.298Z,66.88
2019-02-05T00:23:52.326Z,66.77
2019-02-05T00:24:52.273Z,67.40
2019-02-05T00:25:52.271Z,66.88
2019-02-05T00:26:52.263Z,66.46
2019-02-05T00:27:52.241Z,66.25
2019-02-05T00:28:52.250Z,66.98
2019-02-05T00:29:52.259Z,66.80
2019-02-05T00:30:52.220Z,66.59
2019-02-05T00:31:52.199Z,67.32
2019-02-05T00:32:52.195Z,66.56
2019-02-05T00:33:52.177Z,67.08
2019-02-05T00:34:52.199Z,66.49
2019-02-05T00:35:52.196Z,66.69
2019-02-05T00:36:52.165Z,66.38
2019-02-05T00:37:52.138Z,67.11
2019-02-05T00:38:52.130Z,66.91
2019-02-05T00:39:52.179Z,66.49
2019-02-05T00:40:52.104Z,66.28
2019-02-05T00:41:52.093Z,66.59
2019-02-05T00:42:52.091Z,67.11
2019-02-05T00:43:52.077Z,66.17
2019-02-05T00:44:52.092Z,66.38
2019-02-05T00:45:52.074Z,66.59
2019-02-05T00:46:52.039Z,67.56
2019-02-05T00:47:52.028Z,66.91
2019-02-05T00:48:52.021Z,66.17
2019-02-05T00:49:52.023Z,66.17
2019-02-05T00:50:52.036Z,66.28
2019-02-05T00:51:51.986Z,67.22
2019-02-05T00:52:52.011Z,67.11
2019-02-05T00:53:51.970Z,67.53
2019-02-05T00:54:51.952Z,67.53
2019-02-05T00:55:51.946Z,66.80
2019-02-05T00:56:51.933Z,66.20
2019-02-05T00:57:51.961Z,66.83
2019-02-05T00:58:51.909Z,66.94
2019-02-05T00:59:51.896Z,67.35
2019-02-05T01:00:51.888Z,66.94
2019-02-05T01:01:51.915Z,66.62
2019-02-05T01:02:51.871Z,66.83
2019-02-05T01:03:51.851Z,67.46
2019-02-05T01:04:51.844Z,67.25
2019-02-05T01:05:51.834Z,67.66
2019-02-05T01:06:51.896Z,67.88
2019-02-05T01:07:51.819Z,67.14
2019-02-05T01:08:51.801Z,66.83
2019-02-05T01:09:51.796Z,67.04
2019-02-05T01:10:51.774Z,66.83
2019-02-05T01:11:51.807Z,67.98
2019-02-05T01:12:51.766Z,67.46
2019-02-05T01:13:51.752Z,67.35
2019-02-05T01:14:51.737Z,67.25
2019-02-05T01:15:51.730Z,66.94
2019-02-05T01:16:51.755Z,67.56
2019-02-05T01:17:51.751Z,68.08
2019-02-05T01:18:51.703Z,67.98
2019-02-05T01:19:51.689Z,67.77
2019-02-05T01:20:51.666Z,67.35
2019-02-05T01:21:51.812Z,67.56
2019-02-05T01:22:51.683Z,67.14
2019-02-05T01:23:51.687Z,67.56
2019-02-05T01:24:51.628Z,66.94
2019-02-05T01:25:51.621Z,68.19
2019-02-05T01:26:51.607Z,67.77
2019-02-05T01:27:51.724Z,67.14
2019-02-05T01:28:51.595Z,67.14
2019-02-05T01:29:51.582Z,67.56
2019-02-05T01:30:51.564Z,67.04
2019-02-05T01:31:51.554Z,66.52
2019-02-05T01:32:51.626Z,67.66
2019-02-05T01:33:51.546Z,66.31
2019-02-05T01:34:51.537Z,67.35
2019-02-05T01:35:51.520Z,67.14
2019-02-05T01:36:51.535Z,67.04
2019-02-05T01:37:51.495Z,66.83
2019-02-05T01:38:51.534Z,67.46
2019-02-05T01:39:51.473Z,67.35
2019-02-05T01:40:51.459Z,67.14
2019-02-05T01:41:51.444Z,67.14
2019-02-05T01:42:51.446Z,67.46
2019-02-05T01:43:51.457Z,66.72
2019-02-05T01:44:51.423Z,66.83
2019-02-05T01:45:51.398Z,68.12
2019-02-05T01:46:51.397Z,67.49
2019-02-05T01:47:51.385Z,68.22
2019-02-05T01:48:51.403Z,67.80
2019-02-05T01:49:51.355Z,68.63
2019-02-05T01:50:51.350Z,68.08
2019-02-05T01:51:51.333Z,68.50
2019-02-05T01:52:51.325Z,68.08
2019-02-05T01:53:51.340Z,68.19
2019-02-05T01:54:51.333Z,67.88
2019-02-05T01:55:51.290Z,67.14
2019-02-05T01:56:51.284Z,67.66
2019-02-05T01:57:51.270Z,67.77
2019-02-05T01:58:51.267Z,67.66
2019-02-05T01:59:51.275Z,67.25
2019-02-05T02:00:51.245Z,67.56
2019-02-05T02:01:51.230Z,67.46
2019-02-05T02:02:51.215Z,68.08
2019-02-05T02:03:51.215Z,68.19
2019-02-05T02:04:51.233Z,67.98
2019-02-05T02:05:51.184Z,67.77
2019-02-05T02:06:51.168Z,67.66
2019-02-05T02:07:51.166Z,67.46
2019-02-05T02:08:51.147Z,67.46
2019-02-05T02:09:51.157Z,67.25
2019-02-05T02:10:51.150Z,67.35
2019-02-05T02:11:51.119Z,66.83
2019-02-05T02:12:51.112Z,66.94
2019-02-05T02:13:51.103Z,67.04
2019-02-05T02:14:51.087Z,66.94
2019-02-05T02:15:51.108Z,67.04
2019-02-05T02:16:51.083Z,67.14
2019-02-05T02:17:51.051Z,67.98
2019-02-05T02:18:51.043Z,66.94
2019-02-05T02:19:51.052Z,67.88
2019-02-05T02:20:51.068Z,67.35
2019-02-05T02:21:51.061Z,67.43
2019-02-05T02:22:51.012Z,67.85
2019-02-05T02:23:50.988Z,66.94
2019-02-05T02:24:50.976Z,67.88
2019-02-05T02:25:50.982Z,66.94
2019-02-05T02:26:52.359Z,68.19
2019-02-05T02:27:50.963Z,67.35
2019-02-05T02:28:50.972Z,67.88
2019-02-05T02:29:50.920Z,67.66
2019-02-05T02:30:50.915Z,67.77
2019-02-05T02:31:50.912Z,67.32
2019-02-05T02:32:50.898Z,67.22
2019-02-05T02:33:50.926Z,66.91
2019-02-05T02:34:50.878Z,66.49
2019-02-05T02:35:50.863Z,66.28
2019-02-05T02:36:50.885Z,66.69
2019-02-05T02:37:50.833Z,67.32
2019-02-05T02:38:50.829Z,67.11
2019-02-05T02:39:50.820Z,66.91
2019-02-05T02:40:50.807Z,66.38
2019-02-05T02:41:50.820Z,66.59
2019-02-05T02:42:50.810Z,66.59
2019-02-05T02:43:50.772Z,66.49
2019-02-05T02:44:50.771Z,66.17
2019-02-05T02:45:50.767Z,66.59
2019-02-05T02:46:50.745Z,66.49
2019-02-05T02:47:50.752Z,66.69
2019-02-05T02:48:50.721Z,66.31
2019-02-05T02:49:50.712Z,66.94
2019-02-05T02:50:50.693Z,67.14
2019-02-05T02:51:50.684Z,67.66
2019-02-05T02:52:50.708Z,67.43
2019-02-05T02:53:50.661Z,66.52
2019-02-05T02:54:50.658Z,66.20
2019-02-05T02:55:50.658Z,66.59
2019-02-05T02:56:50.640Z,66.59
2019-02-05T02:57:50.668Z,66.59
2019-02-05T02:58:50.649Z,65.97
2019-02-05T02:59:50.599Z,67.01
2019-02-05T03:00:50.597Z,66.28
2019-02-05T03:01:50.577Z,67.43
2019-02-05T03:02:50.567Z,66.80
2019-02-05T03:03:50.586Z,67.43
2019-02-05T03:04:50.597Z,67.01
2019-02-05T03:05:50.535Z,66.38
2019-02-05T03:06:50.534Z,66.07
2019-02-05T03:07:50.510Z,67.53
2019-02-05T03:08:50.501Z,66.28
2019-02-05T03:09:50.538Z,66.49
2019-02-05T03:10:50.485Z,66.59
2019-02-05T03:11:50.472Z,66.91
2019-02-05T03:12:50.462Z,66.59
2019-02-05T03:13:50.449Z,66.59
2019-02-05T03:14:50.481Z,66.28
2019-02-05T03:15:50.438Z,66.38
2019-02-05T03:16:50.504Z,67.11
2019-02-05T03:17:50.513Z,66.04
2019-02-05T03:18:50.410Z,66.38
2019-02-05T03:19:50.414Z,65.97
2019-02-05T03:20:50.378Z,66.49
2019-02-05T03:21:50.363Z,66.38
2019-02-05T03:22:50.352Z,66.80
2019-02-05T03:23:50.340Z,66.80
2019-02-05T03:24:50.349Z,65.97
2019-02-05T03:25:50.359Z,66.38
2019-02-05T03:26:50.309Z,66.56
2019-02-05T03:27:53.556Z,66.28
2019-02-05T03:28:50.285Z,66.59
2019-02-05T03:29:50.284Z,66.04
2019-02-05T03:30:50.300Z,66.56
2019-02-05T03:31:50.282Z,65.34
2019-02-05T03:32:50.251Z,66.14
2019-02-05T03:33:50.255Z,65.44
2019-02-05T03:34:50.219Z,65.31
2019-02-05T03:35:50.248Z,65.31
2019-02-05T03:36:50.203Z,65.65
2019-02-05T03:37:50.202Z,64.26
2019-02-05T03:38:50.186Z,65.75
2019-02-05T03:39:50.172Z,66.04
2019-02-05T03:40:50.168Z,65.34
2019-02-05T03:41:50.222Z,65.20
2019-02-05T03:42:50.137Z,65.44
2019-02-05T03:43:50.155Z,65.31
2019-02-05T03:44:50.127Z,65.31
2019-02-05T03:45:50.100Z,65.34
2019-02-05T03:46:50.138Z,64.89
2019-02-05T03:47:50.078Z,64.29
2019-02-05T03:48:50.101Z,65.52
2019-02-05T03:49:50.068Z,65.75
2019-02-05T03:50:50.077Z,65.65
2019-02-05T03:51:50.078Z,65.34
2019-02-05T03:52:50.027Z,65.86
2019-02-05T03:53:50.020Z,66.17
2019-02-05T03:54:50.022Z,65.75
2019-02-05T03:55:49.999Z,66.56
2019-02-05T03:56:49.986Z,66.28
2019-02-05T03:57:49.999Z,66.04
2019-02-05T03:58:49.968Z,66.04
2019-02-05T03:59:49.969Z,65.86
2019-02-05T04:00:49.948Z,66.07
2019-02-05T04:01:49.936Z,65.75
2019-02-05T04:02:49.961Z,65.97
2019-02-05T04:03:49.925Z,66.59
2019-02-05T04:04:49.903Z,66.38
2019-02-05T04:05:49.897Z,66.59
2019-02-05T04:06:49.893Z,66.28
2019-02-05T04:07:49.899Z,66.94
2019-02-05T04:08:49.858Z,66.49
2019-02-05T04:09:49.848Z,66.28
2019-02-05T04:10:49.833Z,65.89
2019-02-05T04:11:49.841Z,66.49
2019-02-05T04:12:49.856Z,66.28
2019-02-05T04:13:49.809Z,65.86
2019-02-05T04:14:49.799Z,65.55
2019-02-05T04:15:49.787Z,65.86
2019-02-05T04:16:49.772Z,65.65
2019-02-05T04:17:49.777Z,66.80
2019-02-05T04:18:49.784Z,65.55
2019-02-05T04:19:49.753Z,65.23
2019-02-05T04:20:49.740Z,65.65
2019-02-05T04:21:49.725Z,66.41
2019-02-05T04:22:49.706Z,66.62
2019-02-05T04:23:49.718Z,65.86
2019-02-05T04:24:49.683Z,65.86
2019-02-05T04:25:49.683Z,65.13
2019-02-05T04:26:49.666Z,64.92
2019-02-05T04:27:49.655Z,64.29
2019-02-05T04:28:49.684Z,64.92
2019-02-05T04:29:49.634Z,65.44
2019-02-05T04:30:49.623Z,64.47
2019-02-05T04:31:49.655Z,65.03
2019-02-05T04:32:49.613Z,64.50
2019-02-05T04:33:49.610Z,64.58
2019-02-05T04:34:49.606Z,64.37
2019-02-05T04:35:49.573Z,65.41
2019-02-05T04:36:49.555Z,65.86
2019-02-05T04:37:49.560Z,65.13
2019-02-05T04:38:49.564Z,64.92
2019-02-05T04:39:49.561Z,64.58
2019-02-05T04:40:49.517Z,64.26
2019-02-05T04:41:49.506Z,66.35
2019-02-05T04:42:49.489Z,66.25
2019-02-05T04:43:49.490Z,65.20
2019-02-05T04:44:49.531Z,64.26
2019-02-05T04:45:49.465Z,65.00
2019-02-05T04:46:49.453Z,64.16
2019-02-05T04:47:49.450Z,64.16
2019-02-05T04:48:49.423Z,65.41
2019-02-05T04:49:49.468Z,64.47
2019-02-05T04:50:49.411Z,64.37
2019-02-05T04:51:49.397Z,64.58
2019-02-05T04:52:49.380Z,64.37
2019-02-05T04:53:49.378Z,64.16
2019-02-05T04:54:49.361Z,65.41
2019-02-05T04:55:49.393Z,65.20
2019-02-05T04:56:49.344Z,64.58
2019-02-05T04:57:58.018Z,64.47
2019-02-05T04:58:50.339Z,64.37
2019-02-05T04:59:49.325Z,65.10
2019-02-05T05:00:49.323Z,64.47
2019-02-05T05:01:49.291Z,64.26
2019-02-05T05:02:49.284Z,64.47
2019-02-05T05:03:49.271Z,64.37
2019-02-05T05:04:49.275Z,64.47
2019-02-05T05:05:49.285Z,64.58
2019-02-05T05:06:49.230Z,64.37
2019-02-05T05:07:49.232Z,64.58
2019-02-05T05:08:49.213Z,64.16
2019-02-05T05:09:49.231Z,64.47
2019-02-05T05:10:49.203Z,64.58
2019-02-05T05:11:49.205Z,64.37
2019-02-05T05:12:49.174Z,64.37
2019-02-05T05:13:49.189Z,64.69
2019-02-05T05:14:49.261Z,64.47
2019-02-05T05:15:49.134Z,64.16
2019-02-05T05:16:49.163Z,64.47
2019-02-05T05:17:49.117Z,64.47
2019-02-05T05:18:49.116Z,64.37
2019-02-05T05:19:49.096Z,64.58
2019-02-05T05:20:49.080Z,64.37
2019-02-05T05:21:49.079Z,64.16
2019-02-05T05:22:49.086Z,64.26
2019-02-05T05:23:49.054Z,64.26
2019-02-05T05:24:49.047Z,64.58
2019-02-05T05:25:49.032Z,64.37
2019-02-05T05:26:49.051Z,65.94
2019-02-05T05:27:49.044Z,64.26
2019-02-05T05:28:49.014Z,64.47
2019-02-05T05:29:48.997Z,64.47
2019-02-05T05:30:48.989Z,64.47
2019-02-05T05:31:48.972Z,64.37
2019-02-05T05:32:48.994Z,64.58
2019-02-05T05:33:48.952Z,64.37
2019-02-05T05:34:48.939Z,64.26
2019-02-05T05:35:48.925Z,64.47
2019-02-05T05:36:48.917Z,65.41
2019-02-05T05:37:48.933Z,65.41
2019-02-05T05:38:48.913Z,64.89
2019-02-05T05:39:48.880Z,65.00
2019-02-05T05:40:48.874Z,64.89
2019-02-05T05:41:48.856Z,64.37
2019-02-05T05:42:48.884Z,64.47
2019-02-05T05:43:48.842Z,65.31
2019-02-05T05:44:48.835Z,64.47
2019-02-05T05:45:48.823Z,64.47
2019-02-05T05:46:48.822Z,64.69
2019-02-05T05:47:48.816Z,64.69
2019-02-05T05:48:48.828Z,65.00
2019-02-05T05:49:48.791Z,64.58
2019-02-05T05:50:48.809Z,64.47
2019-02-05T05:51:48.754Z,64.47
2019-02-05T05:52:48.806Z,64.47
2019-02-05T05:53:48.754Z,64.37
2019-02-05T05:54:48.724Z,64.47
2019-02-05T05:55:48.712Z,64.37
2019-02-05T05:56:48.701Z,65.31
2019-02-05T05:57:48.724Z,65.31
2019-02-05T05:58:48.737Z,65.62
2019-02-05T05:59:48.665Z,65.20
2019-02-05T06:00:48.707Z,65.31
2019-02-05T06:01:48.655Z,65.31
2019-02-05T06:02:48.636Z,65.52
2019-02-05T06:03:48.626Z,65.31
2019-02-05T06:04:48.620Z,64.89
2019-02-05T06:05:48.634Z,65.62
2019-02-05T06:06:48.629Z,65.31
2019-02-05T06:07:48.597Z,65.10
2019-02-05T06:08:48.574Z,64.89
2019-02-05T06:09:48.581Z,65.10
2019-02-05T06:10:48.554Z,65.20
2019-02-05T06:11:48.542Z,64.89
2019-02-05T06:12:48.532Z,64.47
2019-02-05T06:13:48.513Z,65.52
2019-02-05T06:14:48.538Z,65.83
2019-02-05T06:15:48.516Z,64.16
2019-02-05T06:16:48.482Z,65.41
2019-02-05T06:17:48.477Z,64.69
2019-02-05T06:18:48.468Z,64.47
2019-02-05T06:19:48.457Z,64.26
2019-02-05T06:20:48.479Z,64.58
2019-02-05T06:21:48.436Z,64.47
2019-02-05T06:22:48.426Z,64.45
2019-02-05T06:23:48.411Z,64.37
2019-02-05T06:24:48.400Z,64.06
2019-02-05T06:25:48.424Z,64.37
2019-02-05T06:26:48.376Z,64.37
2019-02-05T06:27:48.376Z,64.47
2019-02-05T06:28:48.356Z,64.47
2019-02-05T06:29:48.348Z,64.16
2019-02-05T06:30:48.369Z,64.06
2019-02-05T06:31:48.326Z,64.13
2019-02-05T06:32:48.446Z,64.47
2019-02-05T06:33:48.307Z,64.47
2019-02-05T06:34:48.296Z,64.47
2019-02-05T06:35:48.287Z,64.03
2019-02-05T06:36:48.297Z,64.26
2019-02-05T06:37:48.260Z,65.41
2019-02-05T06:38:48.253Z,64.23
2019-02-05T06:39:48.251Z,64.13
2019-02-05T06:40:48.231Z,64.45
2019-02-05T06:41:48.258Z,64.11
2019-02-05T06:42:48.214Z,64.45
2019-02-05T06:43:48.194Z,64.42
2019-02-05T06:44:48.193Z,64.45
2019-02-05T06:45:48.186Z,64.13
2019-02-05T06:46:48.199Z,63.79
2019-02-05T06:47:48.162Z,64.11
2019-02-05T06:48:48.144Z,64.11
2019-02-05T06:49:48.135Z,63.68
2019-02-05T06:50:48.116Z,63.79
2019-02-05T06:51:48.108Z,64.11
2019-02-05T06:52:48.149Z,64.42
2019-02-05T06:53:48.101Z,63.89
2019-02-05T06:54:48.085Z,64.31
2019-02-05T06:55:48.067Z,64.21
2019-02-05T06:56:48.052Z,64.52
2019-02-05T06:57:48.093Z,64.52
2019-02-05T06:58:48.069Z,64.42
2019-02-05T06:59:48.030Z,64.42
2019-02-05T07:00:48.021Z,64.42
2019-02-05T07:01:48.009Z,64.42
2019-02-05T07:02:47.996Z,64.31
2019-02-05T07:03:48.031Z,64.21
2019-02-05T07:04:47.972Z,64.21
2019-02-05T07:05:47.957Z,64.11
2019-02-05T07:06:47.957Z,64.42
2019-02-05T07:07:47.947Z,64.52
2019-02-05T07:08:47.977Z,64.52
2019-02-05T07:09:47.921Z,64.31
2019-02-05T07:10:47.906Z,64.62
2019-02-05T07:11:47.896Z,64.31
2019-02-05T07:12:47.884Z,64.62
2019-02-05T07:13:47.901Z,64.42
2019-02-05T07:14:47.892Z,64.52
2019-02-05T07:15:47.910Z,64.11
2019-02-05T07:16:47.847Z,64.28
2019-02-05T07:17:50.205Z,64.42
2019-02-05T07:18:47.822Z,64.07
2019-02-05T07:19:47.889Z,63.87
2019-02-05T07:20:47.841Z,64.28
2019-02-05T07:21:47.788Z,64.18
2019-02-05T07:22:47.784Z,64.28
2019-02-05T07:23:47.771Z,64.28
2019-02-05T07:24:47.799Z,64.42
2019-02-05T07:25:47.746Z,63.55
2019-02-05T07:26:47.736Z,63.87
2019-02-05T07:27:47.719Z,64.39
2019-02-05T07:28:57.966Z,64.28
2019-02-05T07:29:48.744Z,64.07
2019-02-05T07:30:47.691Z,64.49
2019-02-05T07:31:47.688Z,64.39
2019-02-05T07:32:47.678Z,64.39
2019-02-05T07:33:47.659Z,64.18
2019-02-05T07:34:47.653Z,64.49
2019-02-05T07:35:47.666Z,64.31
2019-02-05T07:36:47.625Z,65.11
2019-02-05T07:37:47.619Z,64.39
2019-02-05T07:38:47.612Z,64.49
2019-02-05T07:39:47.662Z,65.01
2019-02-05T07:40:47.621Z,64.52
2019-02-05T07:41:47.579Z,65.46
2019-02-05T07:42:47.558Z,65.95
2019-02-05T07:43:47.565Z,65.25
2019-02-05T07:44:47.553Z,65.22
2019-02-05T07:45:47.571Z,65.64
2019-02-05T07:46:47.521Z,65.43
2019-02-05T07:47:47.510Z,64.39
2019-02-05T07:48:47.497Z,65.22
2019-02-05T07:49:47.487Z,64.28
2019-02-05T07:50:47.509Z,64.39
2019-02-05T07:51:47.489Z,64.28
2019-02-05T07:52:47.454Z,64.36
2019-02-05T07:53:47.452Z,64.36
2019-02-05T07:54:47.438Z,64.28
2019-02-05T07:55:47.439Z,64.15
2019-02-05T07:56:47.451Z,64.36
2019-02-05T07:57:47.406Z,64.59
2019-02-05T07:58:47.391Z,65.11
2019-02-05T07:59:47.442Z,64.18
2019-02-05T08:00:47.373Z,64.39
2019-02-05T08:01:47.401Z,64.07
2019-02-05T08:02:47.357Z,64.15
2019-02-05T08:03:47.340Z,64.36
2019-02-05T08:04:47.332Z,65.19
2019-02-05T08:05:47.339Z,64.36
2019-02-05T08:06:47.307Z,64.46
2019-02-05T08:07:47.320Z,64.36
2019-02-05T08:08:47.288Z,64.04
2019-02-05T08:09:47.278Z,64.15
2019-02-05T08:10:47.264Z,64.36
2019-02-05T08:11:47.257Z,64.15
2019-02-05T08:12:47.311Z,64.46
2019-02-05T08:13:47.238Z,64.32
2019-02-05T08:14:47.227Z,64.04
2019-02-05T08:15:47.213Z,64.32
2019-02-05T08:16:47.917Z,64.22
2019-02-05T08:17:47.227Z,64.04
2019-02-05T08:18:47.182Z,64.43
2019-02-05T08:19:47.170Z,65.06
2019-02-05T08:20:47.159Z,65.68
2019-02-05T08:21:47.147Z,65.47
2019-02-05T08:22:47.135Z,64.12
2019-02-05T08:23:47.157Z,64.64
2019-02-05T08:24:47.111Z,64.32
2019-02-05T08:25:47.128Z,64.85
2019-02-05T08:26:47.100Z,65.26
2019-02-05T08:27:47.079Z,64.19
2019-02-05T08:28:48.306Z,64.51
2019-02-05T08:29:47.056Z,64.51
2019-02-05T08:30:47.047Z,64.29
2019-02-05T08:31:47.039Z,63.98
2019-02-05T08:32:47.036Z,64.82
2019-02-05T08:33:47.035Z,64.19
2019-02-05T08:34:47.007Z,64.19
2019-02-05T08:35:46.996Z,64.09
2019-02-05T08:36:46.991Z,64.19
2019-02-05T08:37:46.976Z,64.51
2019-02-05T08:38:47.006Z,65.65
2019-02-05T08:39:46.954Z,65.23
2019-02-05T08:40:46.952Z,65.23
2019-02-05T08:41:46.928Z,65.13
2019-02-05T08:42:46.927Z,65.44
2019-02-05T08:43:46.909Z,66.27
2019-02-05T08:44:46.940Z,66.27
2019-02-05T08:45:56.263Z,66.38
2019-02-05T08:46:47.877Z,65.96
2019-02-05T08:47:46.865Z,65.20
2019-02-05T08:48:46.855Z,65.20
2019-02-05T08:49:46.875Z,65.72
2019-02-05T08:50:46.843Z,65.31
2019-02-05T08:51:46.825Z,65.31
2019-02-05T08:52:46.814Z,65.38
2019-02-05T08:53:46.805Z,65.28
2019-02-05T08:54:46.821Z,65.20
2019-02-05T08:55:46.783Z,65.62
2019-02-05T08:56:46.770Z,66.03
2019-02-05T08:57:46.765Z,66.00
2019-02-05T08:58:46.754Z,64.65
2019-02-05T08:59:46.786Z,64.76
2019-02-05T09:00:46.759Z,65.07
2019-02-05T09:01:46.742Z,65.28
2019-02-05T09:02:46.710Z,65.28
2019-02-05T09:03:46.706Z,65.59
2019-02-05T09:04:46.690Z,65.69
2019-02-05T09:05:46.717Z,65.14
2019-02-05T09:06:46.675Z,65.07
2019-02-05T09:07:46.662Z,65.45
2019-02-05T09:08:46.678Z,65.14
2019-02-05T09:09:46.630Z,66.18
2019-02-05T09:10:46.636Z,66.18
2019-02-05T09:11:46.638Z,65.56
2019-02-05T09:12:46.612Z,65.56
2019-02-05T09:13:46.593Z,65.04
2019-02-05T09:14:46.577Z,65.56
2019-02-05T09:15:46.691Z,66.08
2019-02-05T09:16:46.561Z,65.87
2019-02-05T09:17:46.552Z,66.28
2019-02-05T09:18:46.558Z,65.84
2019-02-05T09:19:46.526Z,66.36
2019-02-05T09:20:46.521Z,65.53
2019-02-05T09:21:46.540Z,66.15
2019-02-05T09:22:46.489Z,66.25
2019-02-05T09:23:46.484Z,65.94
2019-02-05T09:24:46.466Z,66.15
2019-02-05T09:25:46.457Z,66.25
2019-02-05T09:26:46.497Z,66.05
2019-02-05T09:27:46.440Z,66.25
2019-02-05T09:28:46.424Z,67.09
2019-02-05T09:29:46.416Z,66.05
2019-02-05T09:30:46.409Z,66.15
2019-02-05T09:31:46.388Z,65.81
2019-02-05T09:32:46.433Z,66.85
2019-02-05T09:33:46.374Z,66.54
2019-02-05T09:34:46.444Z,66.75
2019-02-05T09:35:46.350Z,66.85
2019-02-05T09:36:46.339Z,65.91
2019-02-05T09:37:46.384Z,65.70
2019-02-05T09:38:46.323Z,66.33
2019-02-05T09:39:46.383Z,67.58
2019-02-05T09:40:46.307Z,66.85
2019-02-05T09:41:46.278Z,66.51
2019-02-05T09:42:46.271Z,65.91
2019-02-05T09:43:46.312Z,66.41
2019-02-05T09:44:46.249Z,66.61
2019-02-05T09:45:46.236Z,66.72
2019-02-05T09:46:46.253Z,66.75
2019-02-05T09:47:46.215Z,67.37
2019-02-05T09:48:46.218Z,66.12
2019-02-05T09:49:46.226Z,66.75
2019-02-05T09:50:46.179Z,66.64
2019-02-05T09:51:46.215Z,66.75
2019-02-05T09:52:46.158Z,66.33
2019-02-05T09:53:46.203Z,67.06
2019-02-05T09:54:46.170Z,66.85
2019-02-05T09:55:46.124Z,67.40
2019-02-05T09:56:46.115Z,67.71
2019-02-05T09:57:46.121Z,67.92
2019-02-05T09:58:46.091Z,67.89
2019-02-05T09:59:46.080Z,68.02
2019-02-05T10:00:46.097Z,68.13
2019-02-05T10:01:46.062Z,68.44
2019-02-05T10:02:46.048Z,68.62
2019-02-05T10:03:46.046Z,67.58
2019-02-05T10:04:46.033Z,67.37
2019-02-05T10:05:46.069Z,68.30
2019-02-05T10:06:46.012Z,68.20
2019-02-05T10:07:45.991Z,68.62
2019-02-05T10:08:45.990Z,68.20
2019-02-05T10:09:45.981Z,67.99
2019-02-05T10:10:45.997Z,68.41
2019-02-05T10:11:45.968Z,69.13
2019-02-05T10:12:46.996Z,69.65
2019-02-05T10:13:45.924Z,69.86
2019-02-05T10:14:45.938Z,70.59
2019-02-05T10:15:45.911Z,70.79
2019-02-05T10:16:45.933Z,70.41
2019-02-05T10:17:45.907Z,70.59
2019-02-05T10:18:46.205Z,70.72
2019-02-05T10:19:45.864Z,71.11
2019-02-05T10:20:45.901Z,70.90
2019-02-05T10:21:45.870Z,70.38
2019-02-05T10:22:45.828Z,69.96
2019-02-05T10:23:45.818Z,70.59
2019-02-05T10:24:45.832Z,69.96
2019-02-05T10:25:45.830Z,69.96
2019-02-05T10:26:45.792Z,69.86
2019-02-05T10:27:45.783Z,69.86
2019-02-05T10:28:45.763Z,69.34
2019-02-05T10:29:56.350Z,69.96
2019-02-05T10:30:46.750Z,69.34
2019-02-05T10:31:45.728Z,69.83
2019-02-05T10:32:45.738Z,70.14
2019-02-05T10:33:55.008Z,69.73
2019-02-05T10:34:46.730Z,69.93
2019-02-05T10:35:45.720Z,69.93
2019-02-05T10:36:45.705Z,69.52
2019-02-05T10:37:45.675Z,70.04
2019-02-05T10:38:45.652Z,69.83
2019-02-05T10:39:45.650Z,69.83
2019-02-05T10:40:45.636Z,71.49
2019-02-05T10:41:45.656Z,71.39
2019-02-05T10:42:45.621Z,72.42
2019-02-05T10:43:45.614Z,71.94
2019-02-05T10:44:45.593Z,73.18
2019-02-05T10:45:45.663Z,73.94
2019-02-05T10:46:45.598Z,74.36
2019-02-05T10:47:45.550Z,75.50
2019-02-05T10:48:45.539Z,75.50
2019-02-05T10:49:46.237Z,76.43
2019-02-05T10:50:45.552Z,76.33
2019-02-05T10:51:45.512Z,76.37
2019-02-05T10:52:45.503Z,76.43
2019-02-05T10:53:45.505Z,76.43
2019-02-05T10:54:45.475Z,76.85
2019-02-05T10:55:45.494Z,75.85
2019-02-05T10:56:45.490Z,76.06
2019-02-05T10:57:45.440Z,75.43
2019-02-05T10:58:45.440Z,75.50
2019-02-05T10:59:45.416Z,75.92
2019-02-05T11:00:45.404Z,75.60
2019-02-05T11:01:45.440Z,75.40
2019-02-05T11:02:45.388Z,75.81
2019-02-05T11:03:45.372Z,75.50
2019-02-05T11:04:45.360Z,74.88
2019-02-05T11:05:45.360Z,74.95
2019-02-05T11:06:45.348Z,75.05
2019-02-05T11:07:45.392Z,74.95
2019-02-05T11:08:45.328Z,75.15
2019-02-05T11:09:45.312Z,74.74
2019-02-05T11:10:45.299Z,74.43
2019-02-05T11:11:45.307Z,74.84
2019-02-05T11:12:45.294Z,74.74
2019-02-05T11:13:45.266Z,73.70
2019-02-05T11:14:45.257Z,73.91
2019-02-05T11:15:45.243Z,74.84
2019-02-05T11:16:45.230Z,74.63
2019-02-05T11:17:45.255Z,75.15
2019-02-05T11:18:45.206Z,74.63
2019-02-05T11:19:45.197Z,72.97
2019-02-05T11:20:45.185Z,73.39
2019-02-05T11:21:45.212Z,74.43
2019-02-05T11:22:45.199Z,73.70
2019-02-05T11:23:45.153Z,73.39
2019-02-05T11:24:45.137Z,73.18
2019-02-05T11:25:45.192Z,73.91
2019-02-05T11:26:45.269Z,74.19
2019-02-05T11:27:45.936Z,74.11
2019-02-05T11:28:45.095Z,74.19
2019-02-05T11:29:45.089Z,73.88
2019-02-05T11:30:45.077Z,73.80
2019-02-05T11:31:45.099Z,73.46
2019-02-05T11:32:45.054Z,73.36
2019-02-05T11:33:45.050Z,74.29
2019-02-05T11:34:45.063Z,73.57
2019-02-05T11:35:45.044Z,73.32
2019-02-05T11:36:45.013Z,73.36
2019-02-05T11:37:45.041Z,73.25
2019-02-05T11:38:44.988Z,73.05
2019-02-05T11:39:44.975Z,72.42
2019-02-05T11:40:44.963Z,73.25
2019-02-05T11:41:44.956Z,73.77
2019-02-05T11:42:44.969Z,72.63
2019-02-05T11:43:44.939Z,72.11
2019-02-05T11:44:44.921Z,72.01
2019-02-05T11:45:44.910Z,73.01
2019-02-05T11:46:44.945Z,72.28
2019-02-05T11:47:44.933Z,72.42
2019-02-05T11:48:44.874Z,72.91
2019-02-05T11:49:44.867Z,72.70
2019-02-05T11:50:44.859Z,72.18
2019-02-05T11:51:44.843Z,72.70
2019-02-05T11:52:44.837Z,71.87
2019-02-05T11:53:44.863Z,73.01
2019-02-05T11:54:44.811Z,73.18
2019-02-05T11:55:44.793Z,72.36
2019-02-05T11:56:44.789Z,72.36
2019-02-05T11:57:44.817Z,72.77
2019-02-05T11:58:44.796Z,72.15
2019-02-05T11:59:44.750Z,72.05
2019-02-05T12:00:44.742Z,72.67
2019-02-05T12:01:44.736Z,71.53
2019-02-05T12:02:44.739Z,71.42
2019-02-05T12:03:44.707Z,71.80
2019-02-05T12:04:44.743Z,71.70
2019-02-05T12:05:44.682Z,71.18
2019-02-05T12:06:44.680Z,72.01
2019-02-05T12:07:44.668Z,70.15
2019-02-05T12:08:44.655Z,70.56
2019-02-05T12:09:44.644Z,70.46
2019-02-05T12:10:44.668Z,70.15
2019-02-05T12:11:44.655Z,70.46
2019-02-05T12:12:44.620Z,70.25
2019-02-05T12:13:44.613Z,70.56
2019-02-05T12:14:44.666Z,70.25
2019-02-05T12:15:44.627Z,70.25
2019-02-05T12:16:44.565Z,69.94
2019-02-05T12:17:44.587Z,69.63
2019-02-05T12:18:44.596Z,69.53
2019-02-05T12:19:44.535Z,69.80
2019-02-05T12:20:44.521Z,69.39
2019-02-05T12:21:44.510Z,69.08
2019-02-05T12:22:44.535Z,69.18
2019-02-05T12:23:44.530Z,69.80
2019-02-05T12:24:44.481Z,69.18
2019-02-05T12:25:44.490Z,69.49
2019-02-05T12:26:44.455Z,69.04
2019-02-05T12:27:44.508Z,69.04
2019-02-05T12:28:44.436Z,69.39
2019-02-05T12:29:44.423Z,69.25
2019-02-05T12:30:45.639Z,68.53
2019-02-05T12:31:44.417Z,68.98
2019-02-05T12:32:44.399Z,68.98
2019-02-05T12:33:44.419Z,69.39
2019-02-05T12:34:44.366Z,69.90
2019-02-05T12:35:44.387Z,69.49
2019-02-05T12:36:44.348Z,70.42
2019-02-05T12:37:44.331Z,69.90
2019-02-05T12:38:44.361Z,69.80
2019-02-05T12:39:44.319Z,69.80
2019-02-05T12:40:44.321Z,70.63
2019-02-05T12:41:44.289Z,70.32
2019-02-05T12:42:44.328Z,70.50
2019-02-05T12:43:44.265Z,70.81
2019-02-05T12:44:44.254Z,70.08
2019-02-05T12:45:44.251Z,70.08
2019-02-05T12:46:44.232Z,69.77
2019-02-05T12:47:44.234Z,69.56
2019-02-05T12:48:44.253Z,69.56
2019-02-05T12:49:44.257Z,69.15
2019-02-05T12:50:44.199Z,69.67
2019-02-05T12:51:44.182Z,69.15
2019-02-05T12:52:44.174Z,69.01